METAR Data

Data at: 1200 UTC 24 May 2022

METAR for:KIZG (Fryeburg/Eastern Slo, ME, US)
Text:KIZG 241154Z AUTO 01005KT 10SM CLR 11/02 A3039 RMK AO2 SLP292 T01110022 10111 20017 51005
Temperature: 11.1°C ( 52°F)
Dewpoint: 2.2°C ( 36°F) [RH = 54%]
Pressure (altimeter):30.39 inches Hg (1029.2 mb) [Sea level pressure: 1029.2 mb]
Winds:from the N (10 degrees) at 6 MPH (5 knots; 2.6 m/s)
Visibility:10 or more sm (16+ km)
Ceiling:at least 12,000 feet AGL
Clouds:sky clear below 12,000 feet AGL
QC Flag:automated observation with no human augmentation